createdAt,value
2018-03-20T00:02:25.180Z,82.02
2018-03-20T00:04:52.679Z,81.18
2018-03-20T00:07:20.196Z,81.32
2018-03-20T00:09:47.812Z,81.73
2018-03-20T00:12:15.330Z,82.28
2018-03-20T00:14:42.834Z,81.61
2018-03-20T00:17:10.375Z,82.21
2018-03-20T00:19:37.871Z,81.93
2018-03-20T00:22:05.383Z,82.43
2018-03-20T00:24:32.947Z,82.30
2018-03-20T00:27:00.455Z,82.47
2018-03-20T00:29:27.980Z,82.27
2018-03-20T00:31:55.492Z,81.97
2018-03-20T00:34:22.974Z,81.69
2018-03-20T00:36:50.480Z,81.72
2018-03-20T00:39:17.982Z,82.52
2018-03-20T00:41:45.574Z,82.30
2018-03-20T00:44:13.078Z,82.05
2018-03-20T00:46:40.595Z,81.85
2018-03-20T00:49:08.091Z,82.34
2018-03-20T00:51:35.604Z,81.63
2018-03-20T00:54:03.106Z,81.33
2018-03-20T00:56:30.599Z,81.29
2018-03-20T00:58:58.120Z,81.02
2018-03-20T01:01:25.616Z,81.85
2018-03-20T01:03:53.127Z,81.20
2018-03-20T01:06:20.651Z,80.96
2018-03-20T01:08:48.213Z,81.15
2018-03-20T01:11:15.852Z,80.78
2018-03-20T01:13:43.431Z,80.47
2018-03-20T01:16:11.047Z,80.06
2018-03-20T01:18:38.760Z,80.12
2018-03-20T01:21:06.243Z,79.84
2018-03-20T01:23:33.767Z,80.03
2018-03-20T01:26:01.259Z,80.65
2018-03-20T01:28:28.780Z,80.25
2018-03-20T01:30:56.284Z,80.83
2018-03-20T01:33:23.795Z,80.95
2018-03-20T01:35:51.300Z,81.39
2018-03-20T01:38:18.816Z,81.23
2018-03-20T01:40:46.379Z,81.71
2018-03-20T01:43:13.939Z,81.69
2018-03-20T01:45:41.427Z,81.72
2018-03-20T01:48:08.964Z,81.76
2018-03-20T01:50:36.468Z,81.79
2018-03-20T01:53:16.015Z,82.29
2018-03-20T01:55:43.508Z,82.13
2018-03-20T01:58:11.071Z,82.31
2018-03-20T02:00:38.564Z,82.60
2018-03-20T02:03:06.083Z,83.08
2018-03-20T02:05:33.576Z,83.11
2018-03-20T02:08:01.099Z,83.73
2018-03-20T02:10:28.596Z,83.68
2018-03-20T02:12:56.111Z,84.03
2018-03-20T02:15:23.603Z,83.98
2018-03-20T02:17:51.119Z,83.65
2018-03-20T02:20:18.706Z,83.48
2018-03-20T02:22:46.231Z,84.10
2018-03-20T02:25:13.723Z,83.25
2018-03-20T02:27:41.288Z,83.42
2018-03-20T02:30:08.796Z,83.61
2018-03-20T02:32:36.303Z,83.35
2018-03-20T02:35:03.868Z,82.88
2018-03-20T02:37:31.417Z,82.86
2018-03-20T02:39:58.988Z,83.08
2018-03-20T02:42:26.479Z,83.67
2018-03-20T02:44:54.003Z,83.25
2018-03-20T02:47:21.505Z,83.41
2018-03-20T02:49:49.130Z,83.12
2018-03-20T02:52:17.606Z,83.20
2018-03-20T02:54:45.132Z,82.97
2018-03-20T02:57:12.641Z,83.41
2018-03-20T02:59:40.173Z,83.57
2018-03-20T03:02:08.632Z,83.15
2018-03-20T03:04:36.157Z,83.26
2018-03-20T03:07:03.656Z,83.62
2018-03-20T03:09:31.240Z,83.04
2018-03-20T03:11:58.736Z,81.81
2018-03-20T03:14:26.351Z,82.05
2018-03-20T03:16:53.840Z,81.91
2018-03-20T03:19:21.392Z,81.31
2018-03-20T03:21:48.891Z,81.12
2018-03-20T03:24:16.490Z,81.53
2018-03-20T03:26:43.986Z,81.10
2018-03-20T03:29:11.495Z,81.50
2018-03-20T03:31:39.025Z,81.23
2018-03-20T03:34:06.541Z,80.90
2018-03-20T03:36:34.088Z,80.50
2018-03-20T03:39:01.606Z,79.68
2018-03-20T03:41:29.204Z,78.57
2018-03-20T03:43:56.713Z,78.31
2018-03-20T03:46:24.238Z,79.00
2018-03-20T03:48:51.752Z,78.39
2018-03-20T03:51:20.263Z,77.89
2018-03-20T03:53:47.786Z,78.47
2018-03-20T03:56:15.280Z,76.87
2018-03-20T03:58:42.812Z,77.42
2018-03-20T04:01:10.319Z,77.40
2018-03-20T04:03:37.851Z,77.02
2018-03-20T04:06:05.426Z,77.49
2018-03-20T04:08:32.968Z,77.07
2018-03-20T04:11:00.467Z,77.07
2018-03-20T04:13:27.959Z,76.26
2018-03-20T04:15:55.479Z,76.99
2018-03-20T04:18:22.982Z,77.05
2018-03-20T04:20:50.599Z,77.44
2018-03-20T04:23:18.102Z,76.28
2018-03-20T04:25:45.614Z,76.38
2018-03-20T04:28:13.214Z,77.23
2018-03-20T04:30:40.732Z,77.02
2018-03-20T04:33:08.240Z,76.48
2018-03-20T04:35:35.796Z,75.79
2018-03-20T04:38:03.387Z,76.34
2018-03-20T04:40:30.899Z,76.90
2018-03-20T04:42:58.429Z,76.84
2018-03-20T04:45:25.961Z,77.02
2018-03-20T04:47:53.523Z,77.40
2018-03-20T04:50:21.083Z,76.58
2018-03-20T04:52:48.584Z,75.62
2018-03-20T04:55:16.099Z,76.41
2018-03-20T04:57:43.600Z,76.21
2018-03-20T05:00:11.115Z,75.12
2018-03-20T05:02:38.603Z,75.71
2018-03-20T05:05:06.134Z,75.86
2018-03-20T05:07:33.697Z,75.24
2018-03-20T05:10:01.252Z,75.38
2018-03-20T05:12:28.755Z,74.98
2018-03-20T05:14:56.381Z,75.29
2018-03-20T05:17:23.883Z,75.32
2018-03-20T05:19:52.800Z,75.06
2018-03-20T05:22:23.235Z,74.64
2018-03-20T05:24:50.812Z,74.61
2018-03-20T05:27:18.308Z,74.72
2018-03-20T05:29:45.818Z,75.23
2018-03-20T05:32:13.348Z,76.19
2018-03-20T05:34:40.860Z,75.04
2018-03-20T05:37:08.357Z,75.11
2018-03-20T05:39:35.896Z,74.92
2018-03-20T05:42:03.397Z,75.20
2018-03-20T05:44:30.895Z,74.96
2018-03-20T05:47:01.973Z,73.77
2018-03-20T05:49:34.432Z,72.02
2018-03-20T05:52:06.462Z,73.08
2018-03-20T05:54:33.957Z,73.29
2018-03-20T05:57:01.580Z,72.95
2018-03-20T05:59:29.089Z,73.91
2018-03-20T06:01:56.608Z,73.50
2018-03-20T06:04:24.095Z,73.03
2018-03-20T06:06:51.607Z,73.11
2018-03-20T06:09:19.179Z,73.37
2018-03-20T06:11:46.691Z,72.62
2018-03-20T06:14:14.180Z,72.90
2018-03-20T06:16:41.704Z,72.97
2018-03-20T06:19:09.196Z,72.97
2018-03-20T06:21:36.716Z,71.42
2018-03-20T06:24:04.199Z,72.05
2018-03-20T06:26:31.720Z,71.64
2018-03-20T06:28:59.239Z,71.69
2018-03-20T06:31:26.760Z,70.76
2018-03-20T06:33:54.365Z,71.27
2018-03-20T06:36:22.032Z,70.92
2018-03-20T06:38:49.733Z,69.81
2018-03-20T06:41:17.355Z,70.31
2018-03-20T06:43:44.852Z,69.56
2018-03-20T06:46:12.367Z,69.24
2018-03-20T06:48:39.927Z,69.52
2018-03-20T06:51:07.495Z,68.70
2018-03-20T06:53:35.044Z,68.98
2018-03-20T06:56:02.624Z,69.40
2018-03-20T06:58:30.191Z,69.25
2018-03-20T07:00:57.729Z,70.12
2018-03-20T07:03:25.245Z,70.70
2018-03-20T07:05:52.736Z,69.73
2018-03-20T07:08:20.268Z,69.51
2018-03-20T07:10:47.764Z,67.88
2018-03-20T07:13:15.292Z,68.77
2018-03-20T07:15:42.782Z,69.09
2018-03-20T07:18:10.292Z,69.07
2018-03-20T07:20:37.776Z,67.66
2018-03-20T07:23:05.301Z,68.04
2018-03-20T07:25:32.789Z,68.32
2018-03-20T07:28:00.388Z,67.86
2018-03-20T07:30:28.000Z,67.46
2018-03-20T07:32:55.517Z,68.46
2018-03-20T07:35:23.020Z,68.10
2018-03-20T07:37:50.587Z,68.12
2018-03-20T07:40:18.076Z,69.09
2018-03-20T07:42:45.639Z,68.25
2018-03-20T07:45:13.171Z,68.47
2018-03-20T07:47:40.695Z,68.05
2018-03-20T07:50:08.199Z,68.39
2018-03-20T07:52:35.728Z,68.22
2018-03-20T07:55:03.237Z,68.84
2018-03-20T07:57:30.756Z,68.27
2018-03-20T07:59:58.424Z,67.48
2018-03-20T08:02:26.024Z,67.80
2018-03-20T08:04:53.519Z,67.79
2018-03-20T08:07:21.175Z,67.65
2018-03-20T08:09:48.683Z,68.66
2018-03-20T08:12:16.189Z,67.92
2018-03-20T08:14:43.710Z,67.64
2018-03-20T08:17:11.204Z,67.32
2018-03-20T08:19:38.720Z,67.00
2018-03-20T08:22:06.238Z,68.03
2018-03-20T08:24:33.770Z,67.48
2018-03-20T08:27:01.301Z,66.59
2018-03-20T08:29:28.812Z,67.56
2018-03-20T08:31:56.353Z,68.16
2018-03-20T08:34:23.876Z,66.62
2018-03-20T08:36:51.435Z,66.66
2018-03-20T08:39:18.959Z,67.23
2018-03-20T08:41:46.455Z,66.61
2018-03-20T08:44:13.970Z,64.72
2018-03-20T08:46:41.488Z,64.99
2018-03-20T08:49:09.028Z,64.83
2018-03-20T08:51:36.516Z,63.10
2018-03-20T08:54:04.670Z,64.12
2018-03-20T08:56:32.656Z,63.66
2018-03-20T08:59:00.235Z,63.37
2018-03-20T09:01:27.713Z,61.64
2018-03-20T09:03:55.253Z,62.28
2018-03-20T09:06:22.806Z,62.07
2018-03-20T09:08:51.251Z,61.80
2018-03-20T09:11:18.924Z,62.57
2018-03-20T09:13:46.439Z,63.02
2018-03-20T09:16:13.944Z,64.27
2018-03-20T09:18:41.452Z,62.95
2018-03-20T09:21:08.979Z,64.23
2018-03-20T09:23:36.508Z,63.63
2018-03-20T09:26:04.008Z,62.97
2018-03-20T09:28:31.523Z,62.26
2018-03-20T09:30:59.092Z,62.45
2018-03-20T09:33:26.615Z,63.25
2018-03-20T09:35:54.239Z,62.97
2018-03-20T09:38:21.747Z,62.38
2018-03-20T09:40:49.278Z,61.46
2018-03-20T09:43:16.795Z,61.93
2018-03-20T09:45:44.336Z,63.35
2018-03-20T09:48:11.828Z,61.98
2018-03-20T09:50:39.384Z,60.83
2018-03-20T09:53:06.875Z,60.82
2018-03-20T09:55:34.483Z,60.31
2018-03-20T09:58:02.048Z,59.69
2018-03-20T10:00:29.568Z,58.90
2018-03-20T10:02:57.061Z,60.62
2018-03-20T10:05:24.597Z,58.83
2018-03-20T10:07:52.185Z,57.29
2018-03-20T10:10:19.704Z,56.88
2018-03-20T10:12:47.215Z,58.07
2018-03-20T10:15:14.753Z,59.13
2018-03-20T10:17:42.425Z,59.84
2018-03-20T10:20:09.975Z,59.30
2018-03-20T10:22:37.462Z,57.97
2018-03-20T10:25:05.046Z,58.35
2018-03-20T10:27:32.600Z,58.09
2018-03-20T10:30:00.326Z,57.52
2018-03-20T10:32:27.821Z,58.07
2018-03-20T10:34:55.343Z,57.01
2018-03-20T10:37:22.843Z,56.84
2018-03-20T10:39:51.363Z,55.66
2018-03-20T10:42:18.856Z,56.91
2018-03-20T10:44:46.391Z,57.87
2018-03-20T10:47:13.880Z,57.03
2018-03-20T10:49:41.395Z,58.50
2018-03-20T10:52:08.892Z,57.67
2018-03-20T10:54:36.412Z,56.90
2018-03-20T10:57:03.915Z,56.26
2018-03-20T10:59:31.427Z,56.53
2018-03-20T11:02:04.603Z,58.75
2018-03-20T11:04:32.191Z,57.76
2018-03-20T11:06:59.683Z,56.27
2018-03-20T11:09:27.310Z,53.60
2018-03-20T11:11:54.800Z,53.45
2018-03-20T11:14:22.336Z,52.82
2018-03-20T11:16:49.840Z,54.93
2018-03-20T11:19:17.409Z,51.47
2018-03-20T11:21:44.901Z,49.33
2018-03-20T11:24:12.412Z,50.65
2018-03-20T11:26:39.924Z,50.43
2018-03-20T11:29:07.431Z,49.16
2018-03-20T11:31:35.005Z,49.66
2018-03-20T11:34:02.528Z,46.68
2018-03-20T11:36:30.152Z,44.63
2018-03-20T11:38:57.652Z,44.47
2018-03-20T11:41:25.185Z,40.64
2018-03-20T11:43:52.740Z,37.85
2018-03-20T11:46:20.243Z,34.92
2018-03-20T11:48:47.768Z,28.98
2018-03-20T11:51:15.296Z,27.36
2018-03-20T11:53:42.796Z,28.10
2018-03-20T11:56:10.319Z,28.74
2018-03-20T11:58:37.827Z,27.53
2018-03-20T12:01:05.372Z,25.18
2018-03-20T12:03:32.880Z,21.81
2018-03-20T12:06:00.435Z,21.73
2018-03-20T12:08:39.844Z,22.37
2018-03-20T12:11:07.368Z,24.84
2018-03-20T12:13:34.927Z,25.31
2018-03-20T12:16:02.488Z,23.79
2018-03-20T12:18:29.988Z,21.50
2018-03-20T12:20:57.509Z,20.98
2018-03-20T12:23:25.059Z,20.03
2018-03-20T12:25:52.622Z,20.49
2018-03-20T12:28:20.135Z,20.35
2018-03-20T12:30:47.735Z,23.09
2018-03-20T12:33:15.268Z,24.09
2018-03-20T12:35:42.809Z,26.65
2018-03-20T12:38:10.320Z,31.00
2018-03-20T12:40:37.849Z,32.29
2018-03-20T12:43:05.432Z,27.56
2018-03-20T12:45:32.986Z,23.14
2018-03-20T12:48:00.512Z,22.67
2018-03-20T12:50:28.043Z,17.12
2018-03-20T12:52:55.544Z,19.25
2018-03-20T12:55:23.100Z,22.14
2018-03-20T12:57:50.668Z,24.72
2018-03-20T13:00:18.192Z,26.81
2018-03-20T13:02:45.724Z,29.09
2018-03-20T13:05:13.252Z,31.21
2018-03-20T13:07:40.871Z,33.92
2018-03-20T13:10:08.378Z,34.92
2018-03-20T13:12:35.900Z,35.52
2018-03-20T13:15:03.426Z,33.49
2018-03-20T13:17:31.889Z,34.85
2018-03-20T13:19:59.387Z,34.96
2018-03-20T13:22:27.013Z,37.16
2018-03-20T13:24:54.548Z,38.07
2018-03-20T13:27:22.129Z,34.89
2018-03-20T13:29:49.621Z,33.07
2018-03-20T13:32:17.156Z,32.74
2018-03-20T13:34:44.665Z,33.01
2018-03-20T13:37:12.192Z,33.68
2018-03-20T13:39:39.705Z,35.94
2018-03-20T13:42:07.296Z,37.28
2018-03-20T13:44:34.799Z,39.31
2018-03-20T13:47:02.316Z,41.27
2018-03-20T13:49:29.829Z,43.40
2018-03-20T13:51:57.353Z,44.85
2018-03-20T13:54:24.848Z,46.63
2018-03-20T13:56:52.432Z,45.49
2018-03-20T13:59:19.944Z,45.33
2018-03-20T14:01:47.465Z,45.25
2018-03-20T14:04:14.959Z,46.00
2018-03-20T14:06:42.477Z,46.90
2018-03-20T14:09:10.146Z,45.72
2018-03-20T14:11:37.696Z,43.75
2018-03-20T14:14:05.200Z,43.51
2018-03-20T14:16:32.708Z,45.25
2018-03-20T14:19:00.211Z,44.44
2018-03-20T14:21:27.719Z,44.30
2018-03-20T14:23:56.176Z,45.35
2018-03-20T14:26:23.703Z,45.38
2018-03-20T14:28:51.248Z,45.46
2018-03-20T14:31:18.803Z,45.32
2018-03-20T14:33:46.317Z,43.31
2018-03-20T14:36:13.903Z,44.60
2018-03-20T14:38:41.424Z,44.02
2018-03-20T14:41:08.929Z,43.09
2018-03-20T14:43:36.490Z,43.92
2018-03-20T14:46:03.988Z,43.60
2018-03-20T14:48:31.595Z,43.09
2018-03-20T14:50:59.099Z,42.01
2018-03-20T14:53:26.635Z,41.32
2018-03-20T14:55:54.191Z,41.75
2018-03-20T14:58:21.732Z,41.94
2018-03-20T15:00:49.257Z,43.60
2018-03-20T15:03:16.795Z,45.24
2018-03-20T15:05:44.291Z,46.98
2018-03-20T15:08:11.861Z,47.36
2018-03-20T15:10:40.353Z,46.98
2018-03-20T15:13:07.912Z,47.94
2018-03-20T15:15:36.379Z,46.03
2018-03-20T15:18:04.063Z,44.61
2018-03-20T15:20:31.568Z,45.82
2018-03-20T15:22:59.089Z,44.19
2018-03-20T15:25:26.575Z,45.10
2018-03-20T15:27:54.999Z,44.30
2018-03-20T15:30:22.675Z,42.92
2018-03-20T15:32:51.163Z,44.26
2018-03-20T15:35:18.687Z,44.01
2018-03-20T15:37:46.195Z,43.60
2018-03-20T15:40:13.711Z,43.48
2018-03-20T15:42:41.220Z,44.76
2018-03-20T15:45:08.736Z,45.97
2018-03-20T15:47:36.252Z,44.63
2018-03-20T15:50:03.743Z,45.30
2018-03-20T15:52:31.367Z,44.04
2018-03-20T15:54:58.840Z,45.32
2018-03-20T15:57:26.347Z,45.94
2018-03-20T15:59:53.851Z,45.42
2018-03-20T16:02:21.368Z,46.69
2018-03-20T16:04:48.883Z,47.01
2018-03-20T16:07:16.388Z,48.32
2018-03-20T16:09:43.904Z,49.61
2018-03-20T16:12:11.437Z,49.90
2018-03-20T16:14:38.968Z,50.05
2018-03-20T16:17:06.520Z,49.90
2018-03-20T16:19:34.056Z,50.46
2018-03-20T16:22:01.555Z,49.90
2018-03-20T16:24:29.080Z,50.29
2018-03-20T16:26:56.592Z,50.83
2018-03-20T16:29:24.159Z,51.61
2018-03-20T16:31:51.637Z,50.80
2018-03-20T16:34:19.170Z,50.98
2018-03-20T16:36:46.663Z,51.60
2018-03-20T16:39:14.253Z,51.92
2018-03-20T16:41:41.812Z,54.09
2018-03-20T16:44:09.348Z,54.24
2018-03-20T16:46:36.966Z,55.08
2018-03-20T16:49:04.488Z,55.68
2018-03-20T16:51:31.986Z,55.87
2018-03-20T16:53:59.548Z,56.92
2018-03-20T16:56:27.047Z,55.74
2018-03-20T16:58:54.600Z,55.89
2018-03-20T17:01:22.093Z,56.45
2018-03-20T17:03:49.605Z,56.33
2018-03-20T17:06:17.096Z,55.60
2018-03-20T17:08:44.668Z,55.01
2018-03-20T17:11:12.407Z,54.43
2018-03-20T17:13:39.935Z,51.80
2018-03-20T17:16:07.425Z,53.04
2018-03-20T17:18:34.966Z,54.23
2018-03-20T17:21:02.469Z,56.70
2018-03-20T17:23:30.020Z,57.61
2018-03-20T17:25:57.519Z,57.34
2018-03-20T17:28:25.081Z,58.74
2018-03-20T17:30:52.597Z,58.82
2018-03-20T17:33:20.113Z,58.66
2018-03-20T17:35:47.599Z,58.83
2018-03-20T17:38:15.111Z,59.69
2018-03-20T17:40:42.736Z,59.32
2018-03-20T17:43:10.305Z,60.19
2018-03-20T17:45:37.864Z,60.16
2018-03-20T17:48:05.360Z,60.40
2018-03-20T17:50:32.898Z,60.27
2018-03-20T17:53:00.391Z,59.94
2018-03-20T17:55:28.009Z,60.27
2018-03-20T17:57:55.522Z,60.33
2018-03-20T18:00:23.080Z,60.72
2018-03-20T18:02:50.679Z,60.68
2018-03-20T18:05:18.214Z,60.66
2018-03-20T18:07:45.706Z,60.16
2018-03-20T18:10:13.259Z,60.15
2018-03-20T18:12:40.780Z,60.69
2018-03-20T18:15:08.300Z,60.58
2018-03-20T18:17:35.812Z,60.59
2018-03-20T18:20:04.288Z,60.15
2018-03-20T18:22:31.788Z,60.81
2018-03-20T18:24:59.319Z,60.81
2018-03-20T18:27:27.753Z,61.25
2018-03-20T18:29:55.273Z,61.63
2018-03-20T18:32:22.777Z,61.26
2018-03-20T18:34:50.436Z,61.09
2018-03-20T18:37:17.942Z,61.85
2018-03-20T18:39:45.477Z,61.95
2018-03-20T18:42:12.993Z,61.93
2018-03-20T18:44:40.507Z,62.39
2018-03-20T18:47:08.072Z,62.98
2018-03-20T18:49:35.598Z,63.25
2018-03-20T18:52:03.103Z,63.97
2018-03-20T18:54:30.618Z,64.21
2018-03-20T18:56:58.235Z,64.61
2018-03-20T18:59:25.776Z,64.48
2018-03-20T19:01:53.264Z,64.68
2018-03-20T19:04:20.787Z,64.67
2018-03-20T19:06:48.287Z,64.55
2018-03-20T19:09:15.808Z,64.78
2018-03-20T19:11:43.362Z,64.60
2018-03-20T19:14:10.909Z,65.47
2018-03-20T19:16:38.430Z,65.50
2018-03-20T19:19:05.923Z,65.10
2018-03-20T19:21:33.555Z,65.52
2018-03-20T19:24:01.057Z,66.11
2018-03-20T19:26:28.582Z,66.95
2018-03-20T19:28:56.182Z,67.28
2018-03-20T19:31:23.740Z,68.09
2018-03-20T19:33:51.239Z,68.63
2018-03-20T19:36:18.861Z,69.00
2018-03-20T19:38:46.423Z,69.02
2018-03-20T19:41:14.099Z,69.60
2018-03-20T19:43:41.653Z,69.68
2018-03-20T19:46:09.214Z,69.78
2018-03-20T19:48:36.746Z,69.53
2018-03-20T19:51:04.302Z,69.27
2018-03-20T19:53:31.827Z,69.03
2018-03-20T19:55:59.351Z,69.17
2018-03-20T19:58:26.861Z,69.10
2018-03-20T20:00:54.371Z,69.29
2018-03-20T20:03:21.921Z,69.36
2018-03-20T20:05:49.512Z,68.93
2018-03-20T20:08:17.019Z,69.06
2018-03-20T20:10:44.551Z,69.37
2018-03-20T20:13:12.059Z,69.95
2018-03-20T20:15:39.626Z,70.18
2018-03-20T20:18:07.145Z,70.24
2018-03-20T20:20:34.670Z,70.74
2018-03-20T20:23:02.175Z,70.56
2018-03-20T20:25:30.674Z,71.11
2018-03-20T20:27:58.196Z,71.19
2018-03-20T20:30:25.717Z,71.04
2018-03-20T20:32:54.210Z,71.46
2018-03-20T20:35:21.744Z,71.77
2018-03-20T20:37:49.395Z,72.12
2018-03-20T20:40:16.908Z,72.42
2018-03-20T20:42:44.480Z,73.28
2018-03-20T20:45:12.000Z,73.66
2018-03-20T20:47:39.572Z,73.81
2018-03-20T20:50:07.093Z,74.34
2018-03-20T20:52:34.616Z,74.45
2018-03-20T20:55:02.108Z,74.38
2018-03-20T20:57:29.724Z,74.17
2018-03-20T20:59:57.295Z,74.44
2018-03-20T21:02:24.819Z,75.11
2018-03-20T21:04:52.325Z,75.03
2018-03-20T21:07:19.852Z,75.35
2018-03-20T21:09:47.354Z,76.04
2018-03-20T21:12:14.939Z,75.80
2018-03-20T21:14:42.456Z,76.15
2018-03-20T21:17:10.011Z,75.97
2018-03-20T21:19:37.615Z,75.75
2018-03-20T21:22:05.183Z,75.89
2018-03-20T21:24:32.688Z,75.68
2018-03-20T21:27:00.220Z,75.87
2018-03-20T21:29:27.764Z,76.23
2018-03-20T21:31:55.298Z,76.30
2018-03-20T21:34:22.800Z,76.28
2018-03-20T21:36:50.320Z,76.65
2018-03-20T21:39:17.818Z,76.98
2018-03-20T21:41:46.252Z,77.03
2018-03-20T21:44:13.832Z,77.45
2018-03-20T21:46:41.356Z,78.03
2018-03-20T21:49:09.049Z,78.89
2018-03-20T21:51:36.596Z,79.14
2018-03-20T21:54:04.127Z,79.66
2018-03-20T21:56:31.641Z,80.25
2018-03-20T21:58:59.163Z,80.32
2018-03-20T22:01:26.679Z,80.61
2018-03-20T22:03:54.188Z,80.63
2018-03-20T22:06:21.679Z,80.36
2018-03-20T22:08:49.226Z,79.71
2018-03-20T22:11:16.736Z,79.51
2018-03-20T22:13:44.263Z,79.57
2018-03-20T22:16:11.763Z,79.53
2018-03-20T22:18:39.279Z,79.13
2018-03-20T22:21:06.806Z,78.73
2018-03-20T22:23:34.393Z,78.37
2018-03-20T22:26:01.956Z,78.46
2018-03-20T22:28:29.490Z,78.39
2018-03-20T22:30:57.025Z,77.96
2018-03-20T22:33:24.603Z,78.02
2018-03-20T22:35:52.212Z,78.76
2018-03-20T22:38:19.727Z,79.33
2018-03-20T22:40:47.305Z,79.66
2018-03-20T22:43:14.834Z,80.01
2018-03-20T22:45:42.381Z,80.47
2018-03-20T22:48:09.902Z,80.52
2018-03-20T22:50:37.423Z,80.61
2018-03-20T22:53:04.936Z,80.83
2018-03-20T22:55:32.435Z,80.75
2018-03-20T22:57:59.951Z,80.50
2018-03-20T23:00:30.135Z,80.03
2018-03-20T23:02:57.679Z,79.58
2018-03-20T23:05:25.176Z,79.45
2018-03-20T23:07:52.719Z,79.21
2018-03-20T23:10:20.227Z,79.30
2018-03-20T23:12:47.768Z,79.34
2018-03-20T23:15:16.388Z,79.41
2018-03-20T23:17:43.936Z,79.64
2018-03-20T23:20:11.436Z,79.71
2018-03-20T23:22:38.977Z,79.71
2018-03-20T23:25:06.472Z,79.92
2018-03-20T23:27:34.104Z,80.12
2018-03-20T23:30:01.610Z,80.18
2018-03-20T23:32:29.131Z,80.08
2018-03-20T23:34:56.643Z,80.14
2018-03-20T23:37:24.327Z,80.23
2018-03-20T23:39:51.884Z,80.12
2018-03-20T23:42:19.375Z,80.08
2018-03-20T23:44:46.926Z,79.86
2018-03-20T23:47:14.418Z,79.94
2018-03-20T23:49:41.964Z,80.09
2018-03-20T23:52:09.501Z,79.63
2018-03-20T23:54:37.059Z,79.48
2018-03-20T23:57:04.551Z,79.43
2018-03-20T23:59:32.072Z,79.31
